createdAt,value
2023-03-31T00:00:21.926Z,11.95
2023-03-31T00:01:58.348Z,10.68
2023-03-31T00:03:30.700Z,13.05
2023-03-31T00:05:02.947Z,11.65
2023-03-31T00:06:42.123Z,11.23
2023-03-31T00:08:14.692Z,15.20
2023-03-31T00:09:48.715Z,13.23
2023-03-31T00:11:23.944Z,11.30
2023-03-31T00:12:56.099Z,10.32
2023-03-31T00:14:28.227Z,12.68
2023-03-31T00:16:04.434Z,10.80
2023-03-31T00:17:36.692Z,11.18
2023-03-31T00:19:10.565Z,11.75
2023-03-31T00:20:43.440Z,11.80
2023-03-31T00:22:19.304Z,11.82
2023-03-31T00:23:56.983Z,11.05
2023-03-31T00:25:29.095Z,11.32
2023-03-31T00:27:04.723Z,12.70
2023-03-31T00:28:36.889Z,10.68
2023-03-31T00:30:09.611Z,11.95
2023-03-31T00:31:41.855Z,11.35
2023-03-31T00:34:46.833Z,11.40
2023-03-31T00:36:21.822Z,10.93
2023-03-31T00:37:54.430Z,13.82
2023-03-31T00:39:28.530Z,14.40
2023-03-31T00:41:01.061Z,13.68
2023-03-31T00:42:33.150Z,16.37
2023-03-31T00:44:28.339Z,12.05
2023-03-31T00:46:24.848Z,11.90
2023-03-31T00:48:05.040Z,14.95
2023-03-31T00:49:51.140Z,13.60
2023-03-31T00:51:24.052Z,14.52
2023-03-31T00:53:08.312Z,12.25
2023-03-31T00:54:41.275Z,12.75
2023-03-31T00:56:15.976Z,11.40
2023-03-31T00:57:48.435Z,10.80
2023-03-31T00:59:21.355Z,13.55
2023-03-31T01:00:53.510Z,13.40
2023-03-31T01:02:26.125Z,11.80
2023-03-31T01:03:59.686Z,11.53
2023-03-31T01:08:44.636Z,13.23
2023-03-31T01:10:16.817Z,13.95
2023-03-31T01:11:49.563Z,11.98
2023-03-31T01:13:22.384Z,15.27
2023-03-31T01:14:55.322Z,12.70
2023-03-31T01:16:27.465Z,13.10
2023-03-31T01:18:01.067Z,15.27
2023-03-31T01:19:46.482Z,13.13
2023-03-31T01:21:34.708Z,15.95
2023-03-31T01:23:31.437Z,12.05
2023-03-31T01:25:24.018Z,10.15
2023-03-31T01:27:03.608Z,17.90
2023-03-31T01:28:52.645Z,12.75
2023-03-31T01:31:22.429Z,17.95
2023-03-31T01:33:06.363Z,23.10
2023-03-31T01:36:49.698Z,22.92
2023-03-31T01:38:43.182Z,25.42
2023-03-31T01:40:43.211Z,22.90
2023-03-31T01:42:24.532Z,24.05
2023-03-31T01:44:05.747Z,24.50
2023-03-31T01:46:02.227Z,21.80
2023-03-31T01:48:02.267Z,18.58
2023-03-31T01:49:47.912Z,12.40
2023-03-31T01:51:26.732Z,12.35
2023-03-31T01:53:06.731Z,12.82
2023-03-31T01:54:51.318Z,14.43
2023-03-31T01:56:46.505Z,12.27
2023-03-31T01:58:25.360Z,12.02
2023-03-31T02:00:18.632Z,8.98
2023-03-31T02:01:56.749Z,10.15
2023-03-31T02:03:34.890Z,11.23
2023-03-31T02:05:19.709Z,11.48
2023-03-31T02:06:58.815Z,14.10
2023-03-31T02:08:34.871Z,11.02
2023-03-31T02:10:09.924Z,9.80
2023-03-31T02:11:42.778Z,9.65
2023-03-31T02:13:16.575Z,11.63
2023-03-31T02:14:50.940Z,13.13
2023-03-31T02:16:27.243Z,10.68
2023-03-31T02:18:01.089Z,11.68
2023-03-31T02:19:40.009Z,10.27
2023-03-31T02:21:13.953Z,9.75
2023-03-31T02:22:49.481Z,10.57
2023-03-31T02:24:25.188Z,11.60
2023-03-31T02:26:04.865Z,9.80
2023-03-31T02:27:42.541Z,9.90
2023-03-31T02:29:14.690Z,10.63
2023-03-31T02:30:50.863Z,11.05
2023-03-31T02:32:39.057Z,10.15
2023-03-31T02:34:11.132Z,10.13
2023-03-31T02:35:43.523Z,10.27
2023-03-31T02:37:16.074Z,11.88
2023-03-31T02:39:04.891Z,9.30
2023-03-31T02:42:19.331Z,9.38
2023-03-31T02:43:51.588Z,10.40
2023-03-31T02:45:52.254Z,9.27
2023-03-31T02:47:24.567Z,10.23
2023-03-31T02:48:58.258Z,10.68
2023-03-31T02:50:35.753Z,9.68
2023-03-31T02:52:38.507Z,11.70
2023-03-31T02:54:48.900Z,13.43
2023-03-31T02:56:49.241Z,10.80
2023-03-31T02:58:27.734Z,9.50
2023-03-31T03:00:10.027Z,10.82
2023-03-31T03:01:54.268Z,9.52
2023-03-31T03:03:32.161Z,10.38
2023-03-31T03:05:39.644Z,10.48
2023-03-31T03:07:34.143Z,8.98
2023-03-31T03:11:08.571Z,11.65
2023-03-31T03:13:02.641Z,10.38
2023-03-31T03:14:52.842Z,12.57
2023-03-31T03:16:33.316Z,9.80
2023-03-31T03:18:06.930Z,12.30
2023-03-31T03:19:39.119Z,10.95
2023-03-31T03:21:11.514Z,10.02
2023-03-31T03:22:43.655Z,10.32
2023-03-31T03:24:19.319Z,10.70
2023-03-31T03:25:51.653Z,11.63
2023-03-31T03:27:23.808Z,9.60
2023-03-31T03:28:57.048Z,10.00
2023-03-31T03:30:29.219Z,13.18
2023-03-31T03:32:01.267Z,10.60
2023-03-31T03:33:33.413Z,11.65
2023-03-31T03:35:06.694Z,10.35
2023-03-31T03:36:41.791Z,9.27
2023-03-31T03:38:13.872Z,10.32
2023-03-31T03:39:46.104Z,10.63
2023-03-31T03:41:18.501Z,11.00
2023-03-31T03:42:50.647Z,10.10
2023-03-31T03:44:22.743Z,13.38
2023-03-31T03:45:54.992Z,13.13
2023-03-31T03:47:27.288Z,9.57
2023-03-31T03:48:59.601Z,11.50
2023-03-31T03:50:31.880Z,14.48
2023-03-31T03:52:04.607Z,15.52
2023-03-31T03:53:36.972Z,10.15
2023-03-31T03:55:09.456Z,13.63
2023-03-31T03:56:44.443Z,11.02
2023-03-31T03:58:20.411Z,11.15
2023-03-31T03:59:52.714Z,10.23
2023-03-31T04:01:24.809Z,11.80
2023-03-31T04:02:57.066Z,10.38
2023-03-31T04:04:29.238Z,13.25
2023-03-31T04:06:01.362Z,17.77
2023-03-31T04:07:33.533Z,13.18
2023-03-31T04:09:05.881Z,14.13
2023-03-31T04:10:37.993Z,15.13
2023-03-31T04:12:10.139Z,16.17
2023-03-31T04:13:42.280Z,18.23
2023-03-31T04:15:14.596Z,16.40
2023-03-31T04:16:47.254Z,14.27
2023-03-31T04:18:23.458Z,13.52
2023-03-31T04:19:55.672Z,15.32
2023-03-31T04:21:27.850Z,14.23
2023-03-31T04:22:59.997Z,16.33
2023-03-31T04:24:33.524Z,14.63
2023-03-31T04:26:09.349Z,13.43
2023-03-31T04:27:55.143Z,13.45
2023-03-31T04:29:27.489Z,14.43
2023-03-31T04:30:59.620Z,15.45
2023-03-31T04:32:33.441Z,14.25
2023-03-31T04:34:07.486Z,16.95
2023-03-31T04:35:53.044Z,14.75
2023-03-31T04:37:28.583Z,15.15
2023-03-31T04:39:01.535Z,15.13
2023-03-31T04:40:35.711Z,11.68
2023-03-31T04:42:08.034Z,13.55
2023-03-31T04:43:40.139Z,13.35
2023-03-31T04:45:12.769Z,10.60
2023-03-31T04:46:44.837Z,9.40
2023-03-31T04:48:17.037Z,10.95
2023-03-31T04:49:49.177Z,10.48
2023-03-31T04:51:21.310Z,12.18
2023-03-31T04:52:55.903Z,11.13
2023-03-31T04:54:27.993Z,13.50
2023-03-31T04:56:00.370Z,14.30
2023-03-31T04:57:32.535Z,15.38
2023-03-31T04:59:04.723Z,11.38
2023-03-31T05:00:37.007Z,12.45
2023-03-31T05:02:09.304Z,13.23
2023-03-31T05:03:41.845Z,12.23
2023-03-31T05:05:14.006Z,12.20
2023-03-31T05:06:46.237Z,15.30
2023-03-31T05:08:18.479Z,15.13
2023-03-31T05:09:51.093Z,13.15
2023-03-31T05:11:25.566Z,15.80
2023-03-31T05:12:58.005Z,13.07
2023-03-31T05:14:30.238Z,16.73
2023-03-31T05:16:15.049Z,15.88
2023-03-31T05:17:47.241Z,13.07
2023-03-31T05:19:19.562Z,13.40
2023-03-31T05:20:51.847Z,15.90
2023-03-31T05:22:24.073Z,14.73
2023-03-31T05:23:56.215Z,14.70
2023-03-31T05:25:33.092Z,11.00
2023-03-31T05:27:05.206Z,12.07
2023-03-31T05:28:37.535Z,14.25
2023-03-31T05:30:10.432Z,12.18
2023-03-31T05:31:42.604Z,12.75
2023-03-31T05:33:15.009Z,12.10
2023-03-31T05:34:47.256Z,12.82
2023-03-31T05:36:19.527Z,11.23
2023-03-31T05:37:52.044Z,10.25
2023-03-31T05:39:24.320Z,10.07
2023-03-31T05:40:56.801Z,10.43
2023-03-31T05:42:28.990Z,11.52
2023-03-31T05:44:02.492Z,10.18
2023-03-31T05:47:06.725Z,10.00
2023-03-31T05:48:38.916Z,9.95
2023-03-31T05:50:14.037Z,10.73
2023-03-31T05:51:47.264Z,8.80
2023-03-31T05:53:19.584Z,9.63
2023-03-31T05:56:24.532Z,9.82
2023-03-31T05:57:57.262Z,10.57
2023-03-31T05:59:29.559Z,10.27
2023-03-31T06:01:06.960Z,10.80
2023-03-31T06:02:39.665Z,15.15
2023-03-31T06:04:12.031Z,19.63
2023-03-31T06:05:54.560Z,21.20
2023-03-31T06:07:26.888Z,32.35
2023-03-31T06:08:59.143Z,31.92
2023-03-31T06:10:31.373Z,21.20
2023-03-31T06:12:03.644Z,25.58
2023-03-31T06:13:36.945Z,24.83
2023-03-31T06:15:09.546Z,22.92
2023-03-31T06:16:41.898Z,23.55
2023-03-31T06:18:14.209Z,19.77
2023-03-31T06:19:46.406Z,19.15
2023-03-31T06:21:19.139Z,17.02
2023-03-31T06:22:51.488Z,17.75
2023-03-31T06:24:23.701Z,17.52
2023-03-31T06:26:01.534Z,15.90
2023-03-31T06:27:33.740Z,13.98
2023-03-31T06:29:05.920Z,13.43
2023-03-31T06:30:38.405Z,10.65
2023-03-31T06:32:10.629Z,10.98
2023-03-31T06:33:43.728Z,10.95
2023-03-31T06:35:15.994Z,10.48
2023-03-31T06:36:48.200Z,9.27
2023-03-31T06:38:20.356Z,11.20
2023-03-31T06:39:55.293Z,10.23
2023-03-31T06:41:27.804Z,10.85
2023-03-31T06:43:00.230Z,10.50
2023-03-31T06:44:32.423Z,12.73
2023-03-31T06:46:05.143Z,10.73
2023-03-31T06:47:42.010Z,8.82
2023-03-31T06:49:14.286Z,12.75
2023-03-31T06:50:46.771Z,12.95
2023-03-31T06:52:18.967Z,9.98
2023-03-31T06:53:51.200Z,14.18
2023-03-31T06:55:23.466Z,15.95
2023-03-31T06:56:55.968Z,12.45
2023-03-31T06:58:31.192Z,14.13
2023-03-31T07:00:06.358Z,13.15
2023-03-31T07:01:39.603Z,15.35
2023-03-31T07:03:12.106Z,15.93
2023-03-31T07:04:44.368Z,13.02
2023-03-31T07:06:17.193Z,14.02
2023-03-31T07:07:49.250Z,13.80
2023-03-31T07:09:23.837Z,11.48
2023-03-31T07:10:58.323Z,11.23
2023-03-31T07:12:34.304Z,12.10
2023-03-31T07:14:06.743Z,12.38
2023-03-31T07:15:38.839Z,10.70
2023-03-31T07:17:11.071Z,10.45
2023-03-31T07:18:43.305Z,10.77
2023-03-31T07:20:16.710Z,9.82
2023-03-31T07:23:21.637Z,10.90
2023-03-31T07:24:53.855Z,12.07
2023-03-31T07:26:27.482Z,10.77
2023-03-31T07:27:59.743Z,9.73
2023-03-31T07:29:31.922Z,11.07
2023-03-31T07:31:04.319Z,10.35
2023-03-31T07:32:40.532Z,17.10
2023-03-31T07:34:12.794Z,11.52
2023-03-31T07:35:45.040Z,10.48
2023-03-31T07:37:17.583Z,8.27
2023-03-31T07:38:50.188Z,9.85
2023-03-31T07:40:25.517Z,10.23
2023-03-31T07:41:57.706Z,11.18
2023-03-31T07:43:29.914Z,18.65
2023-03-31T07:45:03.083Z,9.38
2023-03-31T07:46:35.325Z,12.63
2023-03-31T07:48:07.967Z,9.30
2023-03-31T07:49:40.366Z,10.93
2023-03-31T07:51:15.700Z,8.80
2023-03-31T07:52:47.983Z,8.05
2023-03-31T07:54:20.206Z,8.57
2023-03-31T07:55:52.386Z,8.40
2023-03-31T07:57:24.644Z,9.77
2023-03-31T07:58:57.789Z,8.07
2023-03-31T08:00:30.233Z,6.53
2023-03-31T08:02:02.506Z,13.20
2023-03-31T08:03:35.277Z,9.55
2023-03-31T08:05:08.421Z,9.07
2023-03-31T08:06:40.706Z,8.65
2023-03-31T08:08:13.057Z,9.18
2023-03-31T08:09:46.996Z,8.05
2023-03-31T08:11:21.735Z,12.07
2023-03-31T08:12:54.153Z,13.57
2023-03-31T08:14:40.030Z,9.25
2023-03-31T08:16:13.209Z,11.90
2023-03-31T08:17:45.460Z,12.93
2023-03-31T08:19:17.643Z,6.88
2023-03-31T08:20:50.325Z,6.90
2023-03-31T08:22:23.960Z,8.55
2023-03-31T08:23:56.797Z,9.52
2023-03-31T08:25:28.922Z,9.30
2023-03-31T08:27:01.169Z,10.98
2023-03-31T08:28:33.348Z,9.80
2023-03-31T08:30:07.565Z,9.57
2023-03-31T08:31:40.114Z,12.43
2023-03-31T08:33:15.539Z,8.45
2023-03-31T08:34:47.747Z,7.72
2023-03-31T08:36:20.071Z,9.77
2023-03-31T08:39:28.101Z,8.35
2023-03-31T08:43:19.671Z,8.30
2023-03-31T08:44:57.444Z,8.55
2023-03-31T08:46:31.470Z,12.73
2023-03-31T08:48:26.085Z,11.25
2023-03-31T08:50:08.301Z,10.85
2023-03-31T08:51:50.050Z,9.20
2023-03-31T08:53:35.776Z,7.57
2023-03-31T08:55:11.972Z,14.25
2023-03-31T08:56:48.267Z,10.68
2023-03-31T08:58:41.930Z,10.48
2023-03-31T09:00:22.541Z,11.02
2023-03-31T09:02:19.375Z,10.25
2023-03-31T09:04:12.537Z,10.70
2023-03-31T09:05:59.564Z,8.90
2023-03-31T09:07:49.081Z,8.45
2023-03-31T09:09:31.410Z,11.35
2023-03-31T09:11:15.006Z,11.15
2023-03-31T09:14:31.355Z,9.63
2023-03-31T09:16:15.731Z,10.10
2023-03-31T09:17:52.052Z,10.77
2023-03-31T09:19:40.418Z,11.85
2023-03-31T09:21:23.997Z,9.77
2023-03-31T09:23:05.707Z,10.73
2023-03-31T09:24:48.219Z,12.30
2023-03-31T09:26:46.024Z,10.10
2023-03-31T09:28:23.389Z,10.75
2023-03-31T09:30:12.704Z,10.20
2023-03-31T09:31:45.413Z,11.07
2023-03-31T09:33:33.037Z,12.55
2023-03-31T09:35:29.789Z,10.30
2023-03-31T09:37:02.293Z,10.02
2023-03-31T09:38:34.606Z,7.43
2023-03-31T09:40:08.390Z,8.82
2023-03-31T09:41:45.128Z,9.60
2023-03-31T09:43:23.507Z,11.82
2023-03-31T09:44:56.537Z,7.00
2023-03-31T09:46:34.845Z,10.27
2023-03-31T09:48:16.977Z,9.52
2023-03-31T09:49:53.698Z,8.63
2023-03-31T09:51:30.957Z,10.13
2023-03-31T09:53:05.769Z,10.35
2023-03-31T09:54:40.521Z,7.75
2023-03-31T09:56:12.840Z,13.38
2023-03-31T09:57:45.063Z,11.73
2023-03-31T09:59:20.378Z,10.30
2023-03-31T10:01:03.109Z,8.93
2023-03-31T10:02:38.392Z,9.60
2023-03-31T10:04:10.985Z,9.05
2023-03-31T10:05:53.771Z,10.15
2023-03-31T10:07:26.752Z,7.57
2023-03-31T10:09:02.845Z,10.98
2023-03-31T10:10:34.979Z,7.05
2023-03-31T10:12:10.931Z,8.77
2023-03-31T10:14:05.386Z,7.40
2023-03-31T10:15:42.374Z,9.43
2023-03-31T10:17:17.512Z,9.48
2023-03-31T10:18:50.347Z,7.63
2023-03-31T10:20:49.437Z,7.85
2023-03-31T10:22:21.715Z,8.52
2023-03-31T10:23:55.440Z,9.07
2023-03-31T10:25:29.111Z,9.48
2023-03-31T10:27:01.469Z,6.72
2023-03-31T10:28:37.623Z,9.15
2023-03-31T10:30:12.329Z,8.18
2023-03-31T10:31:44.701Z,7.53
2023-03-31T10:33:23.147Z,8.18
2023-03-31T10:35:19.964Z,8.18
2023-03-31T10:36:52.553Z,7.78
2023-03-31T10:38:28.221Z,8.95
2023-03-31T10:40:07.210Z,7.00
2023-03-31T10:41:39.951Z,7.18
2023-03-31T10:43:15.203Z,6.70
2023-03-31T10:44:47.411Z,6.80
2023-03-31T10:46:20.135Z,9.32
2023-03-31T10:47:55.293Z,6.90
2023-03-31T10:49:28.536Z,7.03
2023-03-31T10:51:05.700Z,7.20
2023-03-31T10:52:45.383Z,7.05
2023-03-31T10:54:17.530Z,8.02
2023-03-31T10:55:52.358Z,9.13
2023-03-31T10:57:36.094Z,8.93
2023-03-31T11:01:37.063Z,7.43
2023-03-31T11:03:14.877Z,7.47
2023-03-31T11:05:16.711Z,6.15
2023-03-31T11:07:05.881Z,6.95
2023-03-31T11:08:57.958Z,7.97
2023-03-31T11:10:38.523Z,8.15
2023-03-31T11:12:20.354Z,6.00
2023-03-31T11:14:03.655Z,7.30
2023-03-31T11:15:56.226Z,8.48
2023-03-31T11:17:59.013Z,7.05
2023-03-31T11:20:25.535Z,8.63
2023-03-31T11:22:16.582Z,5.82
2023-03-31T11:24:26.556Z,5.65
2023-03-31T11:26:12.051Z,5.05
2023-03-31T11:28:04.044Z,8.32
2023-03-31T11:29:41.831Z,7.30
2023-03-31T11:31:29.138Z,6.82
2023-03-31T11:33:39.170Z,6.90
2023-03-31T11:35:16.609Z,5.53
2023-03-31T11:37:17.727Z,5.18
2023-03-31T11:39:11.717Z,6.35
2023-03-31T11:41:07.150Z,6.95
2023-03-31T11:42:59.641Z,9.18
2023-03-31T11:44:47.742Z,6.65
2023-03-31T11:46:24.285Z,6.90
2023-03-31T11:48:06.189Z,8.65
2023-03-31T11:49:42.943Z,7.85
2023-03-31T11:51:21.395Z,7.20
2023-03-31T11:53:16.712Z,7.32
2023-03-31T11:55:03.487Z,7.97
2023-03-31T11:56:40.375Z,6.47
2023-03-31T11:58:24.984Z,6.80
2023-03-31T12:00:00.426Z,7.15
2023-03-31T12:01:35.526Z,6.07
2023-03-31T12:03:17.304Z,8.27
2023-03-31T12:04:54.481Z,7.22
2023-03-31T12:06:31.376Z,8.52
2023-03-31T12:08:05.671Z,8.80
2023-03-31T12:10:06.315Z,9.40
2023-03-31T12:11:58.440Z,6.60
2023-03-31T12:13:39.668Z,7.55
2023-03-31T12:15:34.921Z,7.22
2023-03-31T12:17:15.202Z,7.57
2023-03-31T12:19:18.134Z,6.72
2023-03-31T12:20:53.702Z,6.88
2023-03-31T12:22:39.480Z,7.72
2023-03-31T12:24:14.103Z,8.05
2023-03-31T12:25:53.844Z,6.97
2023-03-31T12:27:38.785Z,7.63
2023-03-31T12:29:31.573Z,7.88
2023-03-31T12:31:05.981Z,8.55
2023-03-31T12:32:42.487Z,6.85
2023-03-31T12:34:17.265Z,6.53
2023-03-31T12:35:58.176Z,8.18
2023-03-31T12:37:37.621Z,8.10
2023-03-31T12:39:09.716Z,7.38
2023-03-31T12:40:58.391Z,6.65
2023-03-31T12:42:52.932Z,7.25
2023-03-31T12:44:48.587Z,8.82
2023-03-31T12:46:39.521Z,8.27
2023-03-31T12:48:21.207Z,10.23
2023-03-31T12:49:56.189Z,8.30
2023-03-31T12:51:33.837Z,7.13
2023-03-31T12:53:17.897Z,13.60
2023-03-31T12:55:13.069Z,10.88
2023-03-31T12:57:03.408Z,7.63
2023-03-31T12:58:46.883Z,9.48
2023-03-31T13:02:24.732Z,10.52
2023-03-31T13:04:21.542Z,5.72
2023-03-31T13:05:53.825Z,8.75
2023-03-31T13:07:28.874Z,6.85
2023-03-31T13:09:05.193Z,9.20
2023-03-31T13:11:10.053Z,6.82
2023-03-31T13:12:43.391Z,5.88
2023-03-31T13:14:23.732Z,5.88
2023-03-31T13:15:57.617Z,6.07
2023-03-31T13:17:38.735Z,6.75
2023-03-31T13:19:13.532Z,5.32
2023-03-31T13:20:46.573Z,5.70
2023-03-31T13:22:38.379Z,7.13
2023-03-31T13:24:10.854Z,7.22
2023-03-31T13:25:46.644Z,6.60
2023-03-31T13:27:31.760Z,8.73
2023-03-31T13:29:21.330Z,6.50
2023-03-31T13:31:03.462Z,4.95
2023-03-31T13:32:37.634Z,8.00
2023-03-31T13:34:10.016Z,5.45
2023-03-31T13:35:47.006Z,7.07
2023-03-31T13:37:45.462Z,6.95
2023-03-31T13:39:36.374Z,10.85
2023-03-31T13:41:25.312Z,6.43
2023-03-31T13:43:21.990Z,9.40
2023-03-31T13:45:15.593Z,4.90
2023-03-31T13:46:58.266Z,5.07
2023-03-31T13:48:38.137Z,7.03
2023-03-31T13:50:40.295Z,6.95
2023-03-31T13:52:13.209Z,7.43
2023-03-31T13:53:58.154Z,8.15
2023-03-31T13:55:49.190Z,7.68
2023-03-31T13:57:32.677Z,7.30
2023-03-31T14:01:32.920Z,4.95
2023-03-31T14:03:26.415Z,8.80
2023-03-31T14:05:09.900Z,8.65
2023-03-31T14:06:53.205Z,6.32
2023-03-31T14:08:47.301Z,7.95
2023-03-31T14:10:39.463Z,6.57
2023-03-31T14:12:37.991Z,6.00
2023-03-31T14:14:16.071Z,7.75
2023-03-31T14:15:53.849Z,7.22
2023-03-31T14:17:38.315Z,5.85
2023-03-31T14:21:18.422Z,6.73
2023-03-31T14:23:11.587Z,5.47
2023-03-31T14:24:51.685Z,4.40
2023-03-31T14:26:42.840Z,5.80
2023-03-31T14:28:33.597Z,5.03
2023-03-31T14:30:27.604Z,4.78
2023-03-31T14:32:39.899Z,6.40
2023-03-31T14:34:14.992Z,5.88
2023-03-31T14:36:08.539Z,5.05
2023-03-31T14:37:41.205Z,5.88
2023-03-31T14:39:13.928Z,5.65
2023-03-31T14:40:50.346Z,6.00
2023-03-31T14:42:29.266Z,4.38
2023-03-31T14:44:02.942Z,6.38
2023-03-31T14:45:35.358Z,5.53
2023-03-31T14:47:14.809Z,4.85
2023-03-31T14:48:48.276Z,7.20
2023-03-31T14:50:20.691Z,6.15
2023-03-31T14:51:54.094Z,5.95
2023-03-31T14:53:28.643Z,7.47
2023-03-31T15:07:08.651Z,7.70
2023-03-31T15:08:41.203Z,8.73
2023-03-31T15:10:19.333Z,9.98
2023-03-31T15:11:59.925Z,11.05
2023-03-31T15:14:03.366Z,9.48
2023-03-31T15:15:38.316Z,9.73
2023-03-31T15:17:26.568Z,7.78
2023-03-31T15:19:00.932Z,7.97
2023-03-31T15:20:37.957Z,6.60
2023-03-31T15:22:16.885Z,6.95
2023-03-31T15:23:53.526Z,6.82
2023-03-31T15:25:29.760Z,5.80
2023-03-31T15:27:37.078Z,5.85
2023-03-31T15:29:17.633Z,7.97
2023-03-31T15:30:56.989Z,7.28
2023-03-31T15:32:40.640Z,9.07
2023-03-31T15:34:33.695Z,9.05
2023-03-31T15:36:06.447Z,10.07
2023-03-31T15:37:43.254Z,5.50
2023-03-31T15:39:15.658Z,6.57
2023-03-31T15:40:54.952Z,6.67
2023-03-31T15:42:28.549Z,5.57
2023-03-31T15:44:09.165Z,5.78
2023-03-31T15:45:52.802Z,6.90
2023-03-31T15:47:32.725Z,6.80
2023-03-31T15:49:06.283Z,9.80
2023-03-31T15:50:39.693Z,10.40
2023-03-31T15:52:31.471Z,9.07
2023-03-31T15:54:04.231Z,10.32
2023-03-31T15:55:45.472Z,8.10
2023-03-31T15:57:22.780Z,7.65
2023-03-31T15:59:03.408Z,10.63
2023-03-31T16:00:39.026Z,7.97
2023-03-31T16:02:14.434Z,6.28
2023-03-31T16:03:46.962Z,7.00
2023-03-31T16:07:35.330Z,8.27
2023-03-31T16:09:09.466Z,8.00
2023-03-31T16:10:41.737Z,6.55
2023-03-31T16:12:21.766Z,8.75
2023-03-31T16:13:56.824Z,10.80
2023-03-31T16:15:41.635Z,13.75
2023-03-31T16:17:22.857Z,13.23
2023-03-31T16:19:04.737Z,15.30
2023-03-31T16:20:43.520Z,11.40
2023-03-31T16:22:20.220Z,17.08
2023-03-31T16:23:54.983Z,12.30
2023-03-31T16:25:30.147Z,13.25
2023-03-31T16:27:06.924Z,14.32
2023-03-31T16:28:39.213Z,10.18
2023-03-31T16:30:14.875Z,9.35
2023-03-31T16:31:47.633Z,11.13
2023-03-31T16:33:24.205Z,9.48
2023-03-31T16:35:01.641Z,12.70
2023-03-31T16:36:34.361Z,10.88
2023-03-31T16:38:07.707Z,11.73
2023-03-31T16:41:12.657Z,11.00
2023-03-31T16:42:44.877Z,12.07
2023-03-31T16:44:17.201Z,10.38
2023-03-31T16:45:54.498Z,19.40
2023-03-31T16:47:35.128Z,8.68
2023-03-31T16:49:08.263Z,14.52
2023-03-31T16:50:41.626Z,13.57
2023-03-31T16:53:47.801Z,8.23
2023-03-31T16:55:20.137Z,9.02
2023-03-31T16:56:52.763Z,11.57
2023-03-31T16:58:25.504Z,8.88
2023-03-31T16:59:58.967Z,8.05
2023-03-31T17:01:31.459Z,9.13
2023-03-31T17:03:05.249Z,9.33
2023-03-31T17:04:37.562Z,9.40
2023-03-31T17:06:12.142Z,7.65
2023-03-31T17:09:19.225Z,8.77
2023-03-31T17:10:56.836Z,9.32
2023-03-31T17:12:32.026Z,10.35
2023-03-31T17:14:05.720Z,12.07
2023-03-31T17:15:38.248Z,15.07
2023-03-31T17:17:10.547Z,18.75
2023-03-31T17:18:42.871Z,22.05
2023-03-31T17:20:15.462Z,23.15
2023-03-31T17:21:51.569Z,17.75
2023-03-31T17:23:23.812Z,10.23
2023-03-31T17:24:58.782Z,10.23
2023-03-31T17:26:31.234Z,9.52
2023-03-31T17:28:07.046Z,9.83
2023-03-31T17:29:39.284Z,9.57
2023-03-31T17:31:16.172Z,8.60
2023-03-31T17:32:50.700Z,11.13
2023-03-31T17:34:24.360Z,12.00
2023-03-31T17:35:58.904Z,10.05
2023-03-31T17:37:31.334Z,11.50
2023-03-31T17:39:05.529Z,10.82
2023-03-31T17:40:38.109Z,11.38
2023-03-31T17:42:12.238Z,11.32
2023-03-31T17:43:49.324Z,14.00
2023-03-31T17:45:22.147Z,11.93
2023-03-31T17:46:54.417Z,11.73
2023-03-31T17:48:28.343Z,10.05
2023-03-31T17:50:00.556Z,11.45
2023-03-31T17:51:34.961Z,14.05
2023-03-31T17:53:09.523Z,10.35
2023-03-31T17:54:42.325Z,10.98
2023-03-31T17:56:15.327Z,9.68
2023-03-31T17:57:47.496Z,8.18
2023-03-31T17:59:20.283Z,9.68
2023-03-31T18:00:52.605Z,9.27
2023-03-31T18:02:25.531Z,8.30
2023-03-31T18:03:58.198Z,8.75
2023-03-31T18:05:30.601Z,9.40
2023-03-31T18:07:02.922Z,10.23
2023-03-31T18:08:35.727Z,9.90
2023-03-31T18:10:08.743Z,9.02
2023-03-31T18:11:41.232Z,12.25
2023-03-31T18:13:13.486Z,10.60
2023-03-31T18:14:46.618Z,11.90
2023-03-31T18:16:19.846Z,9.88
2023-03-31T18:17:52.271Z,10.48
2023-03-31T18:19:24.702Z,8.57
2023-03-31T18:20:57.292Z,11.50
2023-03-31T18:22:29.503Z,9.77
2023-03-31T18:24:02.277Z,15.95
2023-03-31T18:25:34.770Z,16.90
2023-03-31T18:27:07.553Z,14.70
2023-03-31T18:28:41.301Z,13.27
2023-03-31T18:30:14.207Z,16.27
2023-03-31T18:31:46.448Z,15.80
2023-03-31T18:33:19.157Z,12.52
2023-03-31T18:34:51.495Z,11.15
2023-03-31T18:36:24.330Z,12.05
2023-03-31T18:37:56.882Z,12.93
2023-03-31T18:39:28.942Z,9.20
2023-03-31T18:41:01.222Z,8.98
2023-03-31T18:42:33.627Z,10.95
2023-03-31T18:44:06.134Z,10.75
2023-03-31T18:45:39.121Z,11.57
2023-03-31T18:47:11.378Z,17.63
2023-03-31T18:48:43.516Z,18.08
2023-03-31T18:50:15.775Z,13.57
2023-03-31T18:51:48.349Z,11.82
2023-03-31T18:53:21.942Z,9.18
2023-03-31T18:54:54.528Z,14.38
2023-03-31T18:56:26.821Z,15.35
2023-03-31T18:57:59.616Z,11.80
2023-03-31T18:59:31.864Z,14.10
2023-03-31T19:01:04.190Z,18.45
2023-03-31T19:02:36.837Z,10.45
2023-03-31T19:04:09.507Z,11.48
2023-03-31T19:05:42.132Z,13.30
2023-03-31T19:07:16.091Z,11.40
2023-03-31T19:08:48.352Z,14.65
2023-03-31T19:10:20.550Z,12.27
2023-03-31T19:11:53.731Z,9.85
2023-03-31T19:13:26.363Z,11.50
2023-03-31T19:14:58.799Z,17.47
2023-03-31T19:16:31.076Z,21.10
2023-03-31T19:18:04.371Z,14.82
2023-03-31T19:19:37.209Z,13.45
2023-03-31T19:21:10.011Z,13.55
2023-03-31T19:22:44.165Z,13.82
2023-03-31T19:24:17.368Z,11.50
2023-03-31T19:25:56.507Z,12.15
2023-03-31T19:27:28.682Z,12.18
2023-03-31T19:29:00.953Z,13.35
2023-03-31T19:30:33.568Z,12.30
2023-03-31T19:32:06.774Z,11.75
2023-03-31T19:33:39.122Z,15.20
2023-03-31T19:35:11.754Z,9.02
2023-03-31T19:36:44.118Z,10.52
2023-03-31T19:38:16.375Z,10.55
2023-03-31T19:39:48.698Z,8.13
2023-03-31T19:41:21.039Z,9.32
2023-03-31T19:42:53.314Z,10.18
2023-03-31T19:44:25.523Z,12.63
2023-03-31T19:45:58.365Z,8.25
2023-03-31T19:47:30.656Z,9.70
2023-03-31T19:49:03.124Z,8.93
2023-03-31T19:50:35.912Z,11.02
2023-03-31T19:52:08.282Z,8.88
2023-03-31T19:53:41.305Z,9.80
2023-03-31T19:55:13.780Z,8.70
2023-03-31T19:56:46.039Z,7.80
2023-03-31T19:58:18.251Z,8.80
2023-03-31T19:59:53.212Z,8.77
2023-03-31T20:01:27.833Z,10.13
2023-03-31T20:03:00.641Z,7.45
2023-03-31T20:04:33.770Z,10.55
2023-03-31T20:06:11.924Z,10.57
2023-03-31T20:07:44.160Z,11.02
2023-03-31T20:09:16.342Z,9.57
2023-03-31T20:10:49.708Z,11.52
2023-03-31T20:13:54.905Z,10.88
2023-03-31T20:15:26.980Z,11.60
2023-03-31T20:17:01.455Z,10.35
2023-03-31T20:18:35.017Z,12.02
2023-03-31T20:20:08.553Z,10.68
2023-03-31T20:21:43.093Z,13.57
2023-03-31T20:23:15.250Z,10.38
2023-03-31T20:24:47.406Z,12.55
2023-03-31T20:26:22.365Z,11.18
2023-03-31T20:27:54.531Z,9.50
2023-03-31T20:29:26.651Z,9.50
2023-03-31T20:30:58.976Z,11.55
2023-03-31T20:32:31.201Z,14.25
2023-03-31T20:34:04.233Z,16.60
2023-03-31T20:35:37.024Z,10.77
2023-03-31T20:37:09.347Z,12.68
2023-03-31T20:38:43.472Z,12.25
2023-03-31T20:40:16.366Z,12.00
2023-03-31T20:41:50.351Z,11.52
2023-03-31T20:43:22.988Z,12.82
2023-03-31T20:44:55.127Z,12.15
2023-03-31T20:46:28.507Z,12.00
2023-03-31T20:49:33.159Z,14.02
2023-03-31T20:51:08.002Z,12.38
2023-03-31T20:52:40.212Z,13.13
2023-03-31T20:54:12.410Z,13.60
2023-03-31T20:55:44.980Z,11.63
2023-03-31T20:57:17.787Z,11.40
2023-03-31T20:58:51.226Z,11.82
2023-03-31T21:00:26.128Z,14.23
2023-03-31T21:01:58.959Z,11.90
2023-03-31T21:03:31.394Z,11.43
2023-03-31T21:05:03.556Z,11.25
2023-03-31T21:06:41.061Z,10.35
2023-03-31T21:08:13.420Z,11.75
2023-03-31T21:09:45.871Z,12.73
2023-03-31T21:11:18.292Z,12.10
2023-03-31T21:12:51.054Z,11.07
2023-03-31T21:14:23.270Z,10.93
2023-03-31T21:15:56.259Z,10.73
2023-03-31T21:17:28.386Z,12.45
2023-03-31T21:19:00.566Z,10.57
2023-03-31T21:20:33.908Z,12.90
2023-03-31T21:23:38.472Z,11.02
2023-03-31T21:25:10.790Z,12.37
2023-03-31T21:26:42.981Z,11.98
2023-03-31T21:28:16.989Z,10.98
2023-03-31T21:29:49.055Z,12.95
2023-03-31T21:31:25.684Z,12.27
2023-03-31T21:32:57.835Z,10.63
2023-03-31T21:34:29.994Z,11.23
2023-03-31T21:36:02.233Z,11.68
2023-03-31T21:37:34.650Z,10.25
2023-03-31T21:39:06.848Z,11.20
2023-03-31T21:40:39.045Z,11.15
2023-03-31T21:42:11.512Z,12.73
2023-03-31T21:43:44.311Z,9.77
2023-03-31T21:45:17.088Z,11.38
2023-03-31T21:46:49.211Z,10.18
2023-03-31T21:48:25.504Z,10.63
2023-03-31T21:49:57.660Z,11.93
2023-03-31T21:51:29.880Z,12.07
2023-03-31T21:53:05.125Z,11.18
2023-03-31T21:54:37.790Z,11.43
2023-03-31T21:56:10.013Z,9.00
2023-03-31T21:57:42.403Z,12.48
2023-03-31T21:59:14.558Z,11.07